Time;durP1;ratioP1;P1;durP2;ratioP2;P2;SDS_P1;SDS_P2;PMS_P1;PMS_P2;Temp;Humidity;BMP_temperature;BMP_pressure;BME280_temperature;BME280_humidity;BME280_pressure;Samples;Min_cycle;Max_cycle;Signal;HPM_P1;HPM_P2
2023/12/14 00:00:19;;;;;;;52.75;8.60;;;10.70;99.90;;;;;;5006285;28;20039;-51
2023/12/14 00:02:45;;;;;;;62.70;9.13;;;10.60;99.90;;;;;;5003976;28;20386;-51
2023/12/14 00:05:10;;;;;;;53.58;8.23;;;10.60;99.90;;;;;;5006420;28;20090;-51
2023/12/14 00:07:36;;;;;;;55.80;9.23;;;10.60;99.90;;;;;;5005933;28;20048;-51
2023/12/14 00:10:03;;;;;;;46.90;8.48;;;10.60;99.90;;;;;;4988715;28;20030;-50
2023/12/14 00:12:28;;;;;;;54.25;8.68;;;10.60;99.90;;;;;;5005973;28;20053;-51
2023/12/14 00:14:54;;;;;;;45.67;8.75;;;10.60;99.90;;;;;;5006029;28;20027;-51
2023/12/14 00:17:19;;;;;;;57.92;9.57;;;10.50;99.90;;;;;;5004874;28;20466;-51
2023/12/14 00:19:45;;;;;;;45.28;7.43;;;10.60;99.90;;;;;;5006067;28;20124;-51
2023/12/14 00:22:11;;;;;;;37.92;8.75;;;10.60;99.90;;;;;;5005069;28;20029;-50
2023/12/14 00:24:36;;;;;;;44.25;7.90;;;10.50;99.90;;;;;;5004672;28;20034;-51
2023/12/14 00:27:02;;;;;;;42.60;8.57;;;10.50;99.90;;;;;;5005786;28;20049;-50
2023/12/14 00:29:28;;;;;;;46.03;8.15;;;10.50;99.90;;;;;;5006030;28;20137;-51
2023/12/14 00:31:53;;;;;;;50.20;7.95;;;10.50;99.90;;;;;;5005859;28;20041;-51
2023/12/14 00:34:19;;;;;;;39.78;7.78;;;10.50;99.90;;;;;;4988540;28;20102;-51
2023/12/14 00:36:44;;;;;;;43.13;8.13;;;10.50;99.90;;;;;;5004625;28;20122;-50
2023/12/14 00:39:10;;;;;;;47.40;7.82;;;10.50;99.90;;;;;;5005769;28;20057;-51
2023/12/14 00:41:36;;;;;;;54.35;8.32;;;10.50;99.90;;;;;;5005720;28;20105;-51
2023/12/14 00:44:01;;;;;;;43.15;7.68;;;10.40;99.90;;;;;;5005726;28;20034;-51
2023/12/14 00:46:27;;;;;;;34.53;7.50;;;10.50;99.90;;;;;;5004422;28;20056;-51
2023/12/14 00:48:52;;;;;;;54.45;8.65;;;10.40;99.90;;;;;;5005507;28;20100;-51
2023/12/14 00:51:18;;;;;;;35.17;6.82;;;10.40;99.90;;;;;;4987908;28;20031;-51
2023/12/14 00:53:44;;;;;;;39.33;7.07;;;10.40;99.90;;;;;;5005566;28;20029;-51
2023/12/14 00:56:09;;;;;;;33.13;7.38;;;10.40;99.90;;;;;;5005257;28;20030;-51
2023/12/14 00:58:35;;;;;;;40.80;7.47;;;10.40;99.90;;;;;;5005370;28;20101;-51
2023/12/14 01:01:00;;;;;;;40.38;6.88;;;10.40;99.90;;;;;;5003956;28;20026;-51
2023/12/14 01:03:26;;;;;;;34.25;6.20;;;10.40;99.90;;;;;;5005263;28;20034;-50
2023/12/14 01:05:51;;;;;;;36.22;6.60;;;10.40;99.90;;;;;;5005274;28;20478;-51
2023/12/14 01:08:17;;;;;;;35.20;5.53;;;10.40;99.90;;;;;;5005341;28;20030;-50
2023/12/14 01:10:43;;;;;;;31.05;5.18;;;10.30;99.90;;;;;;5004108;28;20037;-50
2023/12/14 01:13:08;;;;;;;30.00;6.53;;;10.40;99.90;;;;;;5005095;28;20034;-51
2023/12/14 01:15:34;;;;;;;43.42;6.00;;;10.30;99.90;;;;;;5003771;28;20029;-50
2023/12/14 01:18:00;;;;;;;26.48;5.10;;;10.30;99.90;;;;;;5005215;28;20386;-51
2023/12/14 01:20:25;;;;;;;30.67;6.05;;;10.30;99.90;;;;;;5005218;28;20123;-51
2023/12/14 01:22:51;;;;;;;24.77;5.43;;;10.30;99.90;;;;;;5003764;28;20037;-51
2023/12/14 01:25:16;;;;;;;28.20;5.53;;;10.30;99.90;;;;;;5005027;28;20046;-51
2023/12/14 01:27:42;;;;;;;28.83;5.95;;;10.20;99.90;;;;;;5003562;28;20038;-51
2023/12/14 01:30:08;;;;;;;19.60;4.97;;;10.30;99.90;;;;;;5004988;28;20382;-51
2023/12/14 01:32:33;;;;;;;32.00;6.00;;;10.30;99.90;;;;;;5004715;28;20033;-51
2023/12/14 01:34:59;;;;;;;28.27;5.07;;;10.30;99.90;;;;;;5004959;28;20167;-50
2023/12/14 01:37:24;;;;;;;29.52;5.90;;;10.30;99.90;;;;;;5004744;28;20026;-51
2023/12/14 01:39:50;;;;;;;27.02;5.75;;;10.30;99.90;;;;;;5004694;28;20033;-51
2023/12/14 01:42:16;;;;;;;23.23;4.95;;;10.20;99.90;;;;;;5004738;28;20100;-50
2023/12/14 01:44:41;;;;;;;31.23;5.32;;;10.20;99.90;;;;;;5004845;28;20117;-51
2023/12/14 01:47:07;;;;;;;29.95;4.90;;;10.20;99.90;;;;;;5003449;28;20037;-51
2023/12/14 01:49:32;;;;;;;25.73;5.32;;;10.20;99.90;;;;;;5004670;28;20039;-51
2023/12/14 01:51:58;;;;;;;27.35;5.15;;;10.20;99.90;;;;;;5004597;28;20031;-51
2023/12/14 01:54:23;;;;;;;26.23;4.90;;;10.20;99.90;;;;;;5004682;28;20034;-51
2023/12/14 01:56:49;;;;;;;29.90;4.22;;;10.20;99.90;;;;;;5003354;28;20103;-51
2023/12/14 01:59:15;;;;;;;17.98;3.80;;;10.20;99.90;;;;;;5004677;28;20034;-51
2023/12/14 02:01:45;;;;;;;25.10;4.35;;;10.20;99.90;;;;;;5003227;28;20030;-51
2023/12/14 02:04:11;;;;;;;23.02;4.60;;;10.10;99.90;;;;;;4987070;28;20031;-51
2023/12/14 02:06:36;;;;;;;18.00;4.53;;;10.20;99.90;;;;;;5004508;28;20502;-51
2023/12/14 02:09:02;;;;;;;14.57;3.88;;;10.10;99.90;;;;;;4987021;28;20107;-51
2023/12/14 02:11:28;;;;;;;15.77;4.55;;;10.10;99.90;;;;;;5002910;28;20045;-51
2023/12/14 02:13:53;;;;;;;24.40;4.20;;;10.10;99.90;;;;;;4986705;28;20489;-51
2023/12/14 02:16:19;;;;;;;21.25;4.28;;;10.10;99.90;;;;;;5003406;28;20553;-51
2023/12/14 02:18:45;;;;;;;33.65;5.22;;;10.10;99.90;;;;;;5004747;28;20038;-50
2023/12/14 02:21:11;;;;;;;18.88;4.55;;;10.10;99.90;;;;;;4986636;28;20466;-51
2023/12/14 02:23:45;;;;;;;18.85;3.95;;;10.10;99.90;;;;;;5004236;28;20037;-51
2023/12/14 02:26:11;;;;;;;18.33;3.67;;;10.10;99.90;;;;;;5002632;28;20046;-51
2023/12/14 02:28:36;;;;;;;19.77;3.58;;;10.10;99.90;;;;;;5003375;28;20065;-51
2023/12/14 02:31:02;;;;;;;13.82;4.18;;;10.10;99.90;;;;;;5004248;28;20038;-51
2023/12/14 02:33:28;;;;;;;21.35;4.40;;;10.10;99.90;;;;;;5004053;28;20072;-50
2023/12/14 02:35:53;;;;;;;17.65;3.85;;;10.10;99.90;;;;;;5003219;28;20030;-51
2023/12/14 02:38:19;;;;;;;15.18;4.00;;;10.10;99.90;;;;;;5004761;28;20026;-50
2023/12/14 02:40:45;;;;;;;20.00;4.78;;;10.00;99.90;;;;;;5003810;28;20023;-51
2023/12/14 02:43:10;;;;;;;14.57;3.63;;;10.00;99.90;;;;;;5005236;28;20066;-51
2023/12/14 02:45:36;;;;;;;22.27;3.38;;;10.00;99.90;;;;;;5002972;28;20027;-51
2023/12/14 02:48:01;;;;;;;20.73;3.75;;;10.00;99.90;;;;;;5004255;28;20041;-51
2023/12/14 02:50:27;;;;;;;14.88;3.50;;;10.00;99.90;;;;;;5003894;28;20056;-50
2023/12/14 02:52:52;;;;;;;15.63;3.15;;;10.00;99.90;;;;;;5003898;28;20034;-51
2023/12/14 02:55:18;;;;;;;9.40;3.53;;;10.00;99.90;;;;;;5004033;28;20042;-51
2023/12/14 02:57:44;;;;;;;16.20;3.70;;;10.00;99.90;;;;;;5004057;28;20481;-50
2023/12/14 03:00:10;;;;;;;17.45;3.92;;;10.00;99.90;;;;;;5003603;28;20023;-51
2023/12/14 03:02:37;;;;;;;13.65;3.58;;;10.00;99.90;;;;;;5002390;28;20026;-51
2023/12/14 03:05:03;;;;;;;14.63;3.83;;;10.00;99.90;;;;;;5002536;28;20031;-51
2023/12/14 03:07:28;;;;;;;14.40;3.47;;;10.00;99.90;;;;;;5002552;28;20376;-51
2023/12/14 03:09:54;;;;;;;14.93;3.50;;;10.00;99.90;;;;;;5003737;28;20031;-51
2023/12/14 03:12:19;;;;;;;12.32;2.95;;;10.00;99.90;;;;;;5003325;28;20058;-51
2023/12/14 03:14:45;;;;;;;12.82;3.60;;;10.00;99.90;;;;;;5002521;28;20037;-48
2023/12/14 03:17:13;;;;;;;19.42;3.65;;;9.90;99.90;;;;;;5003623;28;20046;-48
2023/12/14 03:19:42;;;;;;;13.82;2.75;;;10.00;99.90;;;;;;5002469;28;20026;-48
2023/12/14 03:22:08;;;;;;;11.30;3.42;;;10.00;99.90;;;;;;4986117;28;20064;-48
2023/12/14 03:24:34;;;;;;;17.83;3.83;;;9.90;99.90;;;;;;5002084;28;20428;-48
2023/12/14 03:27:02;;;;;;;18.65;2.92;;;9.90;99.90;;;;;;5002220;28;20042;-48
2023/12/14 03:29:27;;;;;;;15.27;3.03;;;9.90;99.90;;;;;;4985767;28;20054;-47
2023/12/14 03:31:53;;;;;;;15.35;3.42;;;9.90;99.90;;;;;;4985747;28;20100;-48
2023/12/14 03:34:19;;;;;;;11.82;2.90;;;9.90;99.90;;;;;;5003367;28;20089;-51
2023/12/14 03:36:45;;;;;;;11.13;2.90;;;9.90;99.90;;;;;;5002243;28;20034;-51
2023/12/14 03:39:10;;;;;;;15.23;3.42;;;9.90;99.90;;;;;;5005896;28;20035;-50
2023/12/14 03:41:36;;;;;;;12.32;3.00;;;9.90;99.90;;;;;;4989051;28;20027;-51
2023/12/14 03:44:01;;;;;;;20.35;2.90;;;9.90;99.90;;;;;;5006392;28;20070;-50
2023/12/14 03:46:27;;;;;;;11.88;3.00;;;9.90;99.90;;;;;;5006556;28;20026;-50
2023/12/14 03:48:52;;;;;;;9.52;2.67;;;9.90;99.90;;;;;;5006581;28;20034;-51
2023/12/14 03:51:19;;;;;;;16.52;3.60;;;9.90;99.90;;;;;;5006505;28;20026;-51
2023/12/14 03:53:44;;;;;;;12.45;2.60;;;9.90;99.90;;;;;;4988998;28;20478;-51
2023/12/14 03:56:10;;;;;;;10.23;3.10;;;9.90;99.90;;;;;;4989183;28;20022;-50
2023/12/14 03:58:36;;;;;;;8.88;3.00;;;9.90;99.90;;;;;;5005161;28;20449;-51
2023/12/14 04:01:02;;;;;;;9.18;2.97;;;9.90;99.90;;;;;;5006241;28;20030;-51
2023/12/14 04:03:27;;;;;;;9.55;2.85;;;9.80;99.90;;;;;;5005007;28;20044;-51
2023/12/14 04:05:53;;;;;;;9.88;3.22;;;9.90;99.90;;;;;;5006910;28;20030;-51
2023/12/14 04:08:18;;;;;;;13.95;2.90;;;9.90;99.90;;;;;;5005084;28;20030;-51
2023/12/14 04:10:44;;;;;;;13.00;3.55;;;9.90;99.90;;;;;;5004946;28;20030;-50
2023/12/14 04:13:09;;;;;;;8.75;3.22;;;9.90;99.90;;;;;;5004810;28;20045;-51
2023/12/14 04:15:35;;;;;;;9.27;2.92;;;9.90;99.90;;;;;;5004756;28;20427;-51
2023/12/14 04:18:01;;;;;;;11.63;3.20;;;9.90;99.90;;;;;;5004576;28;20022;-51
2023/12/14 04:20:26;;;;;;;13.88;3.90;;;9.80;99.90;;;;;;5005935;28;20041;-50
2023/12/14 04:22:52;;;;;;;10.70;3.70;;;9.90;99.90;;;;;;5004688;28;20037;-51
2023/12/14 04:25:17;;;;;;;8.93;3.10;;;9.90;99.90;;;;;;5004855;28;20031;-51
2023/12/14 04:27:43;;;;;;;9.82;3.17;;;9.80;99.90;;;;;;5005726;28;20073;-51
2023/12/14 04:30:10;;;;;;;7.68;2.97;;;9.90;99.90;;;;;;5005862;28;20030;-51
2023/12/14 04:32:39;;;;;;;7.78;2.92;;;9.80;99.90;;;;;;5004627;28;20035;-51
2023/12/14 04:35:05;;;;;;;10.85;3.55;;;9.90;99.90;;;;;;5004697;28;20038;-51
2023/12/14 04:37:31;;;;;;;11.35;3.03;;;9.90;99.90;;;;;;5005429;28;20029;-51
2023/12/14 04:39:57;;;;;;;10.00;3.20;;;9.90;99.90;;;;;;5005625;28;20026;-51
2023/12/14 04:42:23;;;;;;;9.65;3.28;;;9.80;99.90;;;;;;5005612;28;20026;-51
2023/12/14 04:44:48;;;;;;;12.40;3.72;;;9.80;99.90;;;;;;4988256;28;20048;-50
2023/12/14 04:47:14;;;;;;;8.88;2.58;;;9.90;99.90;;;;;;5004576;28;20492;-50
2023/12/14 04:49:40;;;;;;;9.48;3.30;;;9.80;99.90;;;;;;5003735;28;20038;-51
2023/12/14 04:52:08;;;;;;;10.48;3.08;;;9.80;99.90;;;;;;4972083;28;20118;-51
2023/12/14 04:54:37;;;;;;;5.10;2.47;;;9.80;99.90;;;;;;4988250;28;20023;-51
2023/12/14 04:57:03;;;;;;;8.95;3.58;;;9.80;99.90;;;;;;5004364;28;20080;-51
2023/12/14 04:59:29;;;;;;;10.80;3.13;;;9.80;99.90;;;;;;5004224;28;20031;-50
2023/12/14 05:01:54;;;;;;;7.28;3.05;;;9.80;99.90;;;;;;5004285;28;20033;-51
2023/12/14 05:04:20;;;;;;;8.45;3.13;;;9.80;99.90;;;;;;4987974;28;20038;-50
2023/12/14 05:06:45;;;;;;;8.52;2.90;;;9.80;99.90;;;;;;4988101;28;20026;-51
2023/12/14 05:09:11;;;;;;;7.38;3.38;;;9.80;99.90;;;;;;5005331;28;20474;-50
2023/12/14 05:11:39;;;;;;;6.32;3.25;;;9.80;99.90;;;;;;5004040;28;20087;-50
2023/12/14 05:14:04;;;;;;;8.30;2.40;;;9.80;99.90;;;;;;5003932;28;20037;-51
2023/12/14 05:16:30;;;;;;;10.30;2.60;;;9.80;99.90;;;;;;5005233;28;20026;-51
2023/12/14 05:18:56;;;;;;;8.77;2.92;;;9.80;99.90;;;;;;5003958;28;20030;-51
2023/12/14 05:21:22;;;;;;;8.43;2.80;;;9.80;99.90;;;;;;5003815;28;20030;-51
2023/12/14 05:23:48;;;;;;;8.90;3.03;;;9.80;99.90;;;;;;5003698;28;20059;-51
2023/12/14 05:26:14;;;;;;;11.57;3.38;;;9.80;99.90;;;;;;5004948;28;20879;-51
2023/12/14 05:28:39;;;;;;;8.57;3.05;;;9.80;99.90;;;;;;4987568;28;20105;-51
2023/12/14 05:31:05;;;;;;;8.55;3.38;;;9.80;99.90;;;;;;5005071;28;20026;-50
2023/12/14 05:33:31;;;;;;;10.65;3.38;;;9.80;99.90;;;;;;5003544;28;20041;-51
2023/12/14 05:35:57;;;;;;;9.82;2.95;;;9.80;99.90;;;;;;5003682;28;20026;-51
2023/12/14 05:38:22;;;;;;;6.63;2.92;;;9.80;99.90;;;;;;5004855;28;20031;-50
2023/12/14 05:40:48;;;;;;;7.00;2.95;;;9.80;99.90;;;;;;5004781;28;20031;-50
2023/12/14 05:43:13;;;;;;;7.60;3.05;;;9.80;99.90;;;;;;5003561;28;20440;-51
2023/12/14 05:45:39;;;;;;;7.28;3.25;;;9.80;99.90;;;;;;5003339;28;20057;-50
2023/12/14 05:48:08;;;;;;;9.80;3.22;;;9.80;99.90;;;;;;5002961;28;20053;-51
2023/12/14 05:50:33;;;;;;;8.45;3.05;;;9.80;99.90;;;;;;4987937;28;20037;-51
2023/12/14 05:52:59;;;;;;;8.13;3.05;;;9.80;99.90;;;;;;5003212;28;20434;-51
2023/12/14 05:55:24;;;;;;;8.80;3.45;;;9.80;99.90;;;;;;4987118;28;20042;-50
2023/12/14 05:57:50;;;;;;;9.40;3.60;;;9.80;99.90;;;;;;5003347;28;20031;-51
2023/12/14 06:00:16;;;;;;;10.43;4.13;;;9.80;99.90;;;;;;5002186;28;20382;-51
2023/12/14 06:02:41;;;;;;;8.50;3.45;;;9.80;99.90;;;;;;5000395;28;20130;-51
2023/12/14 06:05:08;;;;;;;8.98;3.53;;;9.80;99.90;;;;;;4984265;28;20035;-50
2023/12/14 06:07:33;;;;;;;9.57;2.90;;;9.80;99.90;;;;;;5007345;28;20038;-50
2023/12/14 06:09:59;;;;;;;13.38;3.30;;;9.80;99.90;;;;;;5023125;28;20060;-51
2023/12/14 06:12:25;;;;;;;15.30;4.25;;;9.80;99.90;;;;;;5004279;28;20485;-51
2023/12/14 06:14:50;;;;;;;14.95;4.22;;;9.80;99.90;;;;;;5024211;28;20038;-51
2023/12/14 06:17:16;;;;;;;33.85;6.60;;;9.80;99.90;;;;;;5021079;28;20030;-49
2023/12/14 06:19:42;;;;;;;109.32;16.23;;;9.80;99.90;;;;;;5022630;28;20033;-51
2023/12/14 06:22:07;;;;;;;89.95;10.70;;;9.80;99.90;;;;;;5015341;28;20049;-50
2023/12/14 06:24:33;;;;;;;90.43;12.93;;;9.80;99.90;;;;;;4987318;28;20030;-51
2023/12/14 06:26:58;;;;;;;91.35;13.73;;;9.80;99.90;;;;;;5008048;28;20034;-51
2023/12/14 06:29:24;;;;;;;112.70;17.70;;;9.80;99.90;;;;;;5023836;28;20034;-51
2023/12/14 06:31:50;;;;;;;191.55;22.85;;;9.80;99.90;;;;;;5020405;28;20043;-50
2023/12/14 06:34:16;;;;;;;146.85;18.65;;;9.80;99.90;;;;;;5005128;28;20047;-51
2023/12/14 06:36:43;;;;;;;136.02;18.13;;;9.80;99.90;;;;;;5020807;28;20030;-51
2023/12/14 06:39:09;;;;;;;268.58;31.70;;;9.80;99.90;;;;;;5022189;28;20037;-51
2023/12/14 06:41:34;;;;;;;162.77;20.65;;;9.80;99.90;;;;;;5002830;28;20058;-51
2023/12/14 06:44:00;;;;;;;201.98;22.63;;;9.80;99.90;;;;;;5004997;28;20478;-50
2023/12/14 06:46:26;;;;;;;238.93;24.45;;;9.90;99.90;;;;;;5015962;28;20093;-51
2023/12/14 06:48:51;;;;;;;201.75;21.30;;;9.90;99.90;;;;;;5002362;28;20033;-48
2023/12/14 06:51:17;;;;;;;190.05;19.42;;;9.90;99.90;;;;;;5002743;28;20022;-49
2023/12/14 06:53:43;;;;;;;193.38;20.58;;;9.90;99.90;;;;;;5003888;28;20027;-48
2023/12/14 06:56:12;;;;;;;172.70;21.08;;;9.90;99.90;;;;;;5016453;28;20079;-48
2023/12/14 06:58:39;;;;;;;105.82;14.23;;;9.80;99.90;;;;;;5005851;28;20041;-49
2023/12/14 07:01:05;;;;;;;113.78;12.13;;;9.90;99.90;;;;;;5003239;28;20053;-51
2023/12/14 07:03:31;;;;;;;90.70;12.18;;;9.80;99.90;;;;;;5001194;28;20034;-50
2023/12/14 07:05:57;;;;;;;98.50;11.00;;;9.80;99.90;;;;;;5016959;28;20054;-51
2023/12/14 07:08:23;;;;;;;93.88;10.13;;;9.80;99.90;;;;;;5019240;28;20038;-50
2023/12/14 07:10:48;;;;;;;99.07;11.13;;;9.70;99.90;;;;;;4999728;28;20038;-50
2023/12/14 07:13:14;;;;;;;111.15;11.90;;;9.70;99.90;;;;;;5008359;28;20057;-51
2023/12/14 07:15:40;;;;;;;107.93;11.13;;;9.70;99.90;;;;;;5013179;28;20483;-51
2023/12/14 07:18:05;;;;;;;80.13;10.23;;;9.70;99.90;;;;;;5001278;28;20110;-50
2023/12/14 07:20:31;;;;;;;73.10;9.05;;;9.70;99.90;;;;;;5005248;28;20030;-51
2023/12/14 07:22:56;;;;;;;58.58;8.43;;;9.70;99.90;;;;;;5010000;28;20026;-50
2023/12/14 07:25:22;;;;;;;70.82;9.32;;;9.70;99.90;;;;;;5024350;28;20048;-51
2023/12/14 07:27:47;;;;;;;56.22;7.03;;;9.70;99.90;;;;;;5007322;28;20042;-51
2023/12/14 07:30:13;;;;;;;58.47;8.75;;;9.70;99.90;;;;;;5006631;28;20047;-50
2023/12/14 07:32:39;;;;;;;52.03;7.22;;;9.70;99.90;;;;;;5005628;28;20038;-49
2023/12/14 07:35:05;;;;;;;60.38;7.22;;;9.70;99.90;;;;;;5020023;28;20037;-52
2023/12/14 07:37:31;;;;;;;41.42;7.25;;;9.70;99.90;;;;;;4992748;28;20026;-51
2023/12/14 07:39:57;;;;;;;38.22;6.90;;;9.70;99.90;;;;;;4970059;28;20026;-51
2023/12/14 07:42:23;;;;;;;44.22;5.80;;;9.70;99.90;;;;;;5001918;28;20090;-51
2023/12/14 07:44:49;;;;;;;51.13;7.30;;;9.70;99.90;;;;;;5017840;28;20030;-51
2023/12/14 07:47:15;;;;;;;37.20;5.95;;;9.70;99.90;;;;;;5000764;28;20045;-51
2023/12/14 07:49:40;;;;;;;41.03;6.38;;;9.70;99.90;;;;;;5005313;28;20034;-51
2023/12/14 07:52:06;;;;;;;49.05;6.32;;;9.70;99.90;;;;;;5006293;28;20030;-51
2023/12/14 07:54:32;;;;;;;33.92;5.45;;;9.70;99.90;;;;;;5015915;28;20027;-51
2023/12/14 07:56:57;;;;;;;46.20;6.07;;;9.70;99.90;;;;;;5007446;28;20044;-51
2023/12/14 07:59:23;;;;;;;58.08;9.10;;;9.70;99.90;;;;;;5002602;28;20025;-50
2023/12/14 08:01:48;;;;;;;56.25;8.27;;;9.70;99.90;;;;;;5043459;28;20501;-51
2023/12/14 08:04:14;;;;;;;72.22;9.35;;;9.80;99.90;;;;;;5004320;28;20026;-51
2023/12/14 08:06:40;;;;;;;76.43;7.95;;;9.70;99.90;;;;;;4999441;28;20038;-51
2023/12/14 08:09:05;;;;;;;98.95;10.60;;;9.70;99.90;;;;;;5025653;28;20040;-51
2023/12/14 08:11:32;;;;;;;119.63;11.13;;;9.70;99.90;;;;;;5024703;28;20029;-50
2023/12/14 08:13:58;;;;;;;122.30;13.88;;;9.70;99.90;;;;;;5005068;28;20044;-50
2023/12/14 08:16:23;;;;;;;127.97;11.85;;;9.80;99.90;;;;;;5018048;28;20025;-51
2023/12/14 08:18:49;;;;;;;80.43;9.27;;;9.70;99.90;;;;;;5004893;28;20598;-51
2023/12/14 08:21:15;;;;;;;67.60;8.07;;;9.80;99.90;;;;;;5004441;28;20029;-51
2023/12/14 08:23:41;;;;;;;110.35;11.30;;;9.80;99.90;;;;;;5006923;28;20030;-51
2023/12/14 08:26:08;;;;;;;94.07;9.68;;;9.80;99.90;;;;;;5022278;28;20198;-51
2023/12/14 08:28:34;;;;;;;75.70;8.48;;;9.80;99.90;;;;;;5005425;28;20032;-51
2023/12/14 08:31:02;;;;;;;84.25;9.73;;;9.80;99.90;;;;;;5003714;28;20046;-51
2023/12/14 08:33:28;;;;;;;67.05;7.22;;;9.80;99.90;;;;;;5002308;28;20034;-51
2023/12/14 08:35:54;;;;;;;55.67;6.22;;;9.80;99.90;;;;;;5016109;28;20038;-51
2023/12/14 08:38:20;;;;;;;53.70;7.22;;;9.80;99.90;;;;;;5022067;28;20151;-51
2023/12/14 08:40:46;;;;;;;66.53;7.90;;;9.80;99.90;;;;;;5005252;28;20034;-51
2023/12/14 08:43:11;;;;;;;63.53;9.57;;;9.80;99.90;;;;;;5008506;28;20032;-51
2023/12/14 08:45:37;;;;;;;88.95;9.27;;;9.80;99.90;;;;;;5017481;28;20039;-51
2023/12/14 08:48:03;;;;;;;91.18;10.18;;;9.80;99.90;;;;;;5004093;28;20479;-51
2023/12/14 08:50:28;;;;;;;119.80;12.82;;;9.80;99.90;;;;;;5003978;28;20442;-50
2023/12/14 08:52:54;;;;;;;106.20;9.05;;;9.90;99.90;;;;;;5004380;28;20039;-51
2023/12/14 08:55:20;;;;;;;93.57;11.48;;;9.80;99.90;;;;;;5007884;28;20072;-49
2023/12/14 08:57:45;;;;;;;103.35;11.57;;;9.90;99.90;;;;;;5004973;28;20050;-50
2023/12/14 09:00:12;;;;;;;100.32;10.15;;;9.90;99.90;;;;;;5003798;28;20474;-51
2023/12/14 09:02:40;;;;;;;92.55;9.48;;;9.90;99.90;;;;;;5004310;28;20038;-51
2023/12/14 09:05:06;;;;;;;74.75;9.40;;;9.90;99.90;;;;;;5001510;28;20554;-50
2023/12/14 09:07:35;;;;;;;81.68;9.70;;;10.00;99.90;;;;;;5002665;28;20036;-51
2023/12/14 09:10:00;;;;;;;83.13;10.32;;;10.00;99.90;;;;;;5003398;28;20039;-50
2023/12/14 09:12:26;;;;;;;59.42;8.60;;;10.00;99.90;;;;;;5002688;28;20048;-50
2023/12/14 09:14:52;;;;;;;81.40;10.25;;;10.00;99.90;;;;;;5004094;28;20458;-51
2023/12/14 09:17:18;;;;;;;57.55;7.88;;;10.00;99.90;;;;;;5017176;28;20145;-51
2023/12/14 09:19:43;;;;;;;88.18;10.55;;;10.00;99.90;;;;;;5000708;28;20031;-50
2023/12/14 09:22:09;;;;;;;100.85;9.70;;;10.00;99.90;;;;;;5002015;28;20598;-51
2023/12/14 09:24:34;;;;;;;112.75;11.23;;;10.00;99.90;;;;;;5000510;28;20087;-50
2023/12/14 09:27:02;;;;;;;94.95;9.80;;;10.00;99.90;;;;;;4999989;28;20043;-51
2023/12/14 09:29:28;;;;;;;109.53;11.32;;;10.00;99.90;;;;;;5004421;28;20034;-50
2023/12/14 09:31:54;;;;;;;102.30;10.65;;;10.00;99.90;;;;;;4995178;28;20033;-51
2023/12/14 09:34:20;;;;;;;84.07;10.00;;;10.00;99.90;;;;;;5000444;28;20026;-51
2023/12/14 09:36:45;;;;;;;87.97;9.60;;;10.00;99.90;;;;;;4999433;28;20027;-51
2023/12/14 09:39:11;;;;;;;112.60;11.57;;;10.00;99.90;;;;;;4983137;28;20019;-50
2023/12/14 09:41:39;;;;;;;110.47;11.55;;;10.00;99.90;;;;;;5013348;28;20034;-50
2023/12/14 09:44:06;;;;;;;104.60;10.73;;;10.10;99.90;;;;;;5007294;28;20018;-49
2023/12/14 09:46:36;;;;;;;136.95;13.20;;;10.00;99.90;;;;;;4996456;28;20062;-51
2023/12/14 09:49:02;;;;;;;102.63;9.65;;;10.10;99.90;;;;;;4985870;28;20014;-50
2023/12/14 09:51:27;;;;;;;110.35;9.38;;;10.10;99.90;;;;;;5002648;28;20033;-51
2023/12/14 09:53:57;;;;;;;110.13;10.50;;;10.00;99.90;;;;;;5003507;28;20056;-51
2023/12/14 09:56:24;;;;;;;105.03;10.88;;;10.10;99.90;;;;;;5005008;28;20042;-51
2023/12/14 09:58:51;;;;;;;114.13;10.27;;;10.00;99.90;;;;;;4997349;28;20030;-51
2023/12/14 10:01:26;;;;;;;82.25;8.88;;;10.10;99.90;;;;;;4989543;28;20485;-51
2023/12/14 10:04:08;;;;;;;;;;;10.10;99.90;;;;;;4982839;28;20031;-51
2023/12/14 10:06:33;;;;;;;93.30;10.57;;;10.10;99.90;;;;;;4992665;28;19913;-51
2023/12/14 10:08:59;;;;;;;108.90;12.30;;;10.10;99.90;;;;;;5011577;28;20026;-51
2023/12/14 10:11:24;;;;;;;122.15;13.50;;;10.10;99.90;;;;;;5002779;28;20026;-51
2023/12/14 10:13:50;;;;;;;107.43;11.20;;;10.10;99.90;;;;;;4997345;28;20134;-51
2023/12/14 10:16:32;;;;;;;105.25;10.00;;;10.10;99.90;;;;;;5002392;28;20030;-51
2023/12/14 10:18:58;;;;;;;103.72;11.70;;;10.20;99.90;;;;;;5006403;28;20062;-51
2023/12/14 10:21:25;;;;;;;112.38;12.35;;;10.10;99.90;;;;;;4993708;28;20367;-51
2023/12/14 10:23:52;;;;;;;88.85;10.23;;;10.20;99.90;;;;;;4999507;28;20035;-51
2023/12/14 10:26:17;;;;;;;100.40;12.35;;;10.20;99.90;;;;;;5001028;28;20038;-51
2023/12/14 10:28:43;;;;;;;82.38;9.63;;;10.20;99.90;;;;;;4991342;28;20084;-51
2023/12/14 10:31:10;;;;;;;106.03;11.77;;;10.20;99.90;;;;;;4995029;28;20082;-50
2023/12/14 10:33:35;;;;;;;96.35;9.98;;;10.20;99.90;;;;;;4989281;28;20477;-50
2023/12/14 10:36:01;;;;;;;92.80;9.50;;;10.20;99.90;;;;;;5004682;28;20095;-50
2023/12/14 10:38:27;;;;;;;78.47;8.25;;;10.20;99.90;;;;;;5011259;28;20071;-51
2023/12/14 10:40:53;;;;;;;61.85;7.60;;;10.20;99.90;;;;;;4990347;28;20030;-51
2023/12/14 10:43:18;;;;;;;57.05;8.70;;;10.20;99.90;;;;;;4981251;28;20027;-51
2023/12/14 10:45:44;;;;;;;75.47;9.40;;;10.20;99.90;;;;;;5000328;28;20059;-51
2023/12/14 10:48:09;;;;;;;72.75;8.57;;;10.20;99.90;;;;;;4982318;28;20041;-51
2023/12/14 10:50:36;;;;;;;55.75;8.00;;;10.20;99.90;;;;;;4987897;28;20039;-59
2023/12/14 10:53:02;;;;;;;56.70;8.20;;;10.20;99.90;;;;;;4991372;28;20031;-59
2023/12/14 10:55:38;;;;;;;71.50;7.38;;;10.20;99.90;;;;;;4994948;28;20053;-59
2023/12/14 10:58:04;;;;;;;59.83;7.82;;;10.20;99.90;;;;;;4988697;28;20091;-60
2023/12/14 11:00:31;;;;;;;56.90;6.43;;;10.20;99.90;;;;;;4989705;28;20560;-59
2023/12/14 11:02:57;;;;;;;44.90;6.05;;;10.20;99.90;;;;;;4989762;28;20031;-59
2023/12/14 11:05:28;;;;;;;41.17;6.57;;;10.20;99.90;;;;;;4992053;28;20125;-59
2023/12/14 11:07:55;;;;;;;70.38;7.93;;;10.20;99.90;;;;;;5003143;28;20030;-59
2023/12/14 11:10:23;;;;;;;47.88;7.78;;;10.20;99.90;;;;;;4996679;28;20030;-59
2023/12/14 11:13:10;;;;;;;78.72;7.65;;;10.20;99.90;;;;;;5005798;28;20511;-59
2023/12/14 11:15:36;;;;;;;67.00;8.57;;;10.20;99.90;;;;;;4998797;28;20047;-59
2023/12/14 11:18:08;;;;;;;67.05;7.10;;;10.20;99.90;;;;;;4998874;28;20034;-59
2023/12/14 11:20:48;;;;;;;64.82;7.72;;;10.20;99.90;;;;;;4996744;28;20064;-58
2023/12/14 11:23:25;;;;;;;48.75;6.85;;;10.20;99.90;;;;;;5016326;28;20032;-59
2023/12/14 11:25:58;;;;;;;69.22;8.73;;;10.20;99.90;;;;;;4992124;28;20087;-59
2023/12/14 11:28:24;;;;;;;62.75;8.27;;;10.20;99.90;;;;;;5002127;28;20042;-59
2023/12/14 11:30:50;;;;;;;30.52;4.80;;;10.20;99.90;;;;;;5002931;28;20038;-59
2023/12/14 11:33:16;;;;;;;59.38;7.22;;;10.20;99.90;;;;;;5001547;28;20291;-57
2023/12/14 11:35:42;;;;;;;34.58;4.63;;;10.20;99.90;;;;;;5000025;28;20027;-59
2023/12/14 11:38:13;;;;;;;37.38;6.70;;;10.20;99.90;;;;;;5011212;28;20026;-59
2023/12/14 11:40:45;;;;;;;52.63;6.88;;;10.20;99.90;;;;;;4983182;28;20046;-59
2023/12/14 11:43:10;;;;;;;58.38;7.13;;;10.20;99.90;;;;;;5001384;28;20041;-60
2023/12/14 11:45:39;;;;;;;63.00;9.25;;;10.20;99.90;;;;;;4998298;28;20030;-58
2023/12/14 11:48:06;;;;;;;69.57;8.60;;;10.20;99.90;;;;;;4989412;28;20023;-58
2023/12/14 11:50:35;;;;;;;61.80;7.80;;;10.20;99.90;;;;;;4992780;28;20048;-58
2023/12/14 11:53:04;;;;;;;69.95;6.72;;;10.20;99.90;;;;;;4991109;28;20095;-58
2023/12/14 11:55:30;;;;;;;86.90;10.93;;;10.20;99.90;;;;;;4995962;28;20031;-59
2023/12/14 11:57:56;;;;;;;92.68;11.45;;;10.20;99.90;;;;;;4995164;28;20022;-58
2023/12/14 12:00:25;;;;;;;126.75;13.35;;;10.20;99.90;;;;;;5004211;28;20030;-58
2023/12/14 12:02:51;;;;;;;90.28;10.93;;;10.30;99.90;;;;;;5000668;28;20094;-58
2023/12/14 12:05:19;;;;;;;80.15;9.82;;;10.30;99.90;;;;;;5001962;28;20086;-59
2023/12/14 12:07:45;;;;;;;112.78;10.35;;;10.30;99.90;;;;;;4999211;28;20038;-58
2023/12/14 12:10:11;;;;;;;88.05;8.75;;;10.30;99.90;;;;;;5003445;28;20042;-59
2023/12/14 12:12:37;;;;;;;65.00;8.25;;;10.30;99.90;;;;;;4986005;28;20041;-59
2023/12/14 12:15:03;;;;;;;65.97;9.68;;;10.30;99.90;;;;;;5001039;28;20034;-59
2023/12/14 12:17:29;;;;;;;73.07;8.73;;;10.30;99.90;;;;;;5002128;28;20042;-59
2023/12/14 12:19:55;;;;;;;69.30;9.90;;;10.30;99.90;;;;;;5009696;28;20087;-59
2023/12/14 12:22:54;;;;;;;110.90;11.20;;;10.30;99.90;;;;;;5001964;28;20082;-58
2023/12/14 12:25:27;;;;;;;77.28;7.93;;;10.30;99.90;;;;;;4963149;28;20209;-59
2023/12/14 12:27:56;;;;;;;67.85;7.65;;;10.30;99.90;;;;;;5011865;28;20038;-58
2023/12/14 12:30:22;;;;;;;79.10;9.07;;;10.30;99.90;;;;;;5006166;28;20030;-59
2023/12/14 12:32:49;;;;;;;76.90;8.25;;;10.30;99.90;;;;;;4993298;28;20044;-59